Time;durP1;ratioP1;P1;durP2;ratioP2;P2;SDS_P1;SDS_P2;PMS_P1;PMS_P2;Temp;Humidity;BMP_temperature;BMP_pressure;BME280_temperature;BME280_humidity;BME280_pressure;Samples;Min_cycle;Max_cycle;Signal;HPM_P1;HPM_P2
2023/01/18 00:01:10;;;;;;;6.90;2.53;;;;;;;12.59;85.89;98423.69;4979786;28;20109;-66
2023/01/18 00:03:37;;;;;;;5.72;2.50;;;;;;;12.58;85.50;98429.22;4980352;28;20034;-66
2023/01/18 00:06:05;;;;;;;7.32;2.63;;;;;;;12.65;85.98;98427.38;4979510;28;20058;-67
2023/01/18 00:08:33;;;;;;;5.28;2.70;;;;;;;12.68;85.77;98435.72;4978747;28;20110;-67
2023/01/18 00:11:03;;;;;;;10.13;3.80;;;;;;;12.67;85.30;98436.75;4977738;28;20048;-66
2023/01/18 00:13:28;;;;;;;8.07;3.72;;;;;;;12.67;85.56;98441.25;4978116;28;20324;-66
2023/01/18 00:16:00;;;;;;;8.18;3.85;;;;;;;12.44;86.78;98433.69;4977425;28;20058;-66
2023/01/18 00:18:26;;;;;;;6.47;3.80;;;;;;;12.19;87.93;98430.03;4978404;28;20039;-67
2023/01/18 00:20:51;;;;;;;11.75;5.68;;;;;;;11.94;89.44;98430.63;4978164;28;20363;-67
2023/01/18 00:23:17;;;;;;;13.38;6.90;;;;;;;11.95;89.82;98426.97;4979896;28;20061;-66
2023/01/18 00:25:42;;;;;;;6.82;3.70;;;;;;;11.76;91.17;98419.75;4982121;28;20043;-66
2023/01/18 00:28:07;;;;;;;9.23;4.97;;;;;;;11.63;91.49;98417.91;4983574;28;20039;-66
2023/01/18 00:30:33;;;;;;;8.00;3.47;;;;;;;11.35;93.20;98433.09;4983450;28;20282;-66
2023/01/18 00:32:58;;;;;;;5.25;3.20;;;;;;;11.30;95.19;98446.13;4983581;28;20026;-66
2023/01/18 00:35:24;;;;;;;8.85;5.88;;;;;;;11.29;96.22;98452.44;4983162;28;20047;-66
2023/01/18 00:37:51;;;;;;;32.40;16.40;;;;;;;11.07;97.92;98431.34;4982549;28;20042;-66
2023/01/18 00:40:17;;;;;;;37.25;19.83;;;;;;;11.17;98.06;98433.63;4981334;28;20050;-67
2023/01/18 00:45:27;;;;;;;14.00;6.13;;;;;;;11.03;99.77;98440.72;4983231;28;20058;-66
2023/01/18 00:47:52;;;;;;;17.20;6.10;;;;;;;11.10;99.83;98454.81;4982267;28;20332;-66
2023/01/18 00:50:19;;;;;;;21.77;8.35;;;;;;;11.11;100.00;98456.44;4980961;28;20046;-66
2023/01/18 00:52:46;;;;;;;8.68;4.63;;;;;;;10.96;100.00;98465.53;4982191;28;20372;-67
2023/01/18 00:55:13;;;;;;;16.33;6.32;;;;;;;11.02;100.00;98457.63;4982591;28;20074;-67
2023/01/18 00:57:38;;;;;;;16.33;7.10;;;;;;;10.97;100.00;98438.84;4981072;28;20066;-66
2023/01/18 01:00:08;;;;;;;17.63;6.80;;;;;;;10.88;100.00;98448.78;4982975;28;20077;-66
2023/01/18 01:02:37;;;;;;;7.97;3.25;;;;;;;10.90;100.00;98448.59;4981594;28;20213;-66
2023/01/18 01:07:48;;;;;;;13.60;4.72;;;;;;;11.09;99.96;98436.44;4981364;28;20076;-66
2023/01/18 01:10:14;;;;;;;8.27;3.88;;;;;;;11.15;99.52;98431.19;4982677;28;20046;-66
2023/01/18 01:26:21;;;;;;;4.93;2.28;;;;;;;11.50;94.63;98407.28;4981145;28;20053;-66
2023/01/18 01:28:51;;;;;;;3.20;2.03;;;;;;;11.58;94.25;98428.28;4982917;28;20298;-67
2023/01/18 01:31:18;;;;;;;3.88;1.85;;;;;;;11.65;93.39;98423.00;4982004;28;20078;-67
2023/01/18 01:33:44;;;;;;;5.75;1.95;;;;;;;11.56;94.28;98414.44;4979753;28;20041;-66
2023/01/18 01:36:15;;;;;;;4.22;1.90;;;;;;;11.48;94.33;98406.66;4980906;28;20042;-66
2023/01/18 01:38:41;;;;;;;5.35;1.88;;;;;;;11.37;94.55;98413.31;4980285;28;20224;-66
2023/01/18 01:41:12;;;;;;;4.85;1.80;;;;;;;11.38;94.23;98409.66;4979576;28;20058;-66
2023/01/18 01:43:46;;;;;;;6.40;2.00;;;;;;;11.42;94.63;98413.53;4980978;28;20089;-67
2023/01/18 01:46:24;;;;;;;6.00;2.53;;;;;;;11.49;94.64;98410.94;4982058;28;20034;-67
2023/01/18 01:48:53;;;;;;;3.75;1.83;;;;;;;11.45;94.51;98429.06;4981183;28;20038;-66
2023/01/18 01:51:19;;;;;;;4.20;2.00;;;;;;;11.62;94.70;98434.00;4981824;28;20201;-66
2023/01/18 01:53:47;;;;;;;4.68;2.10;;;;;;;11.76;93.55;98427.72;4980882;28;20312;-66
2023/01/18 01:56:13;;;;;;;6.38;1.73;;;;;;;11.83;93.08;98423.28;4979973;28;20409;-66
2023/01/18 01:58:40;;;;;;;3.92;1.92;;;;;;;11.83;92.29;98441.84;4980321;28;20367;-66
2023/01/18 02:01:07;;;;;;;4.55;2.13;;;;;;;11.85;92.50;98425.72;4981757;28;20043;-67
2023/01/18 02:03:38;;;;;;;6.07;1.98;;;;;;;11.69;92.68;98429.53;4981356;28;20034;-67
2023/01/18 02:06:31;;;;;;;5.78;2.42;;;;;;;11.46;93.89;98448.44;4980167;28;20069;-66
2023/01/18 02:09:21;;;;;;;5.35;2.10;;;;;;;11.68;92.77;98447.28;4979280;28;20340;-66
2023/01/18 02:11:49;;;;;;;16.98;5.75;;;;;;;11.67;93.00;98443.00;4978867;28;20043;-66
2023/01/18 02:14:15;;;;;;;6.88;2.45;;;;;;;11.63;93.07;98430.34;4978924;28;20233;-66
2023/01/18 02:17:01;;;;;;;5.70;2.53;;;;;;;11.51;92.75;98436.22;4979652;28;20030;-66
2023/01/18 02:20:08;;;;;;;3.85;2.20;;;;;;;11.56;93.07;98434.81;4979681;28;20042;-66
2023/01/18 02:22:51;;;;;;;6.18;2.38;;;;;;;11.45;93.01;98429.06;4980085;28;20046;-66
2023/01/18 02:25:43;;;;;;;7.40;3.00;;;;;;;11.43;93.65;98425.78;4980015;28;20037;-66
2023/01/18 02:28:13;;;;;;;3.55;2.30;;;;;;;11.37;92.93;98431.88;4979775;28;20042;-65
2023/01/18 02:30:57;;;;;;;6.03;2.22;;;;;;;11.43;93.31;98440.88;4978481;28;20054;-66
2023/01/18 02:33:31;;;;;;;;;;;;;;;11.47;93.34;98435.00;4980950;28;20034;-65
2023/01/18 02:36:00;;;;;;;5.47;2.08;;;;;;;11.45;93.73;98428.25;4979475;28;19932;-66
2023/01/18 02:38:31;;;;;;;4.43;2.05;;;;;;;11.34;94.67;98437.56;4978807;28;20069;-68
2023/01/18 02:41:09;;;;;;;5.75;2.50;;;;;;;11.20;96.79;98412.84;4980395;28;20137;-66
2023/01/18 02:46:29;;;;;;;6.07;2.15;;;;;;;10.96;98.44;98436.38;4978777;28;20050;-65
2023/01/18 02:48:56;;;;;;;7.13;2.03;;;;;;;10.34;99.67;98432.72;4980501;28;20047;-67
2023/01/18 02:51:22;;;;;;;5.60;2.20;;;;;;;10.07;100.00;98428.19;4978243;28;20281;-66
2023/01/18 02:53:48;;;;;;;6.18;2.10;;;;;;;10.25;100.00;98423.28;4980059;28;20340;-66
2023/01/18 02:56:25;;;;;;;6.75;2.22;;;;;;;10.46;100.00;98417.97;4979902;28;20065;-65
2023/01/18 02:59:03;;;;;;;8.52;2.50;;;;;;;10.06;100.00;98430.03;4980380;28;20053;-65
2023/01/18 03:01:38;;;;;;;5.43;2.75;;;;;;;10.16;100.00;98443.75;4980992;28;20047;-65
2023/01/18 03:04:14;;;;;;;7.93;3.08;;;;;;;10.37;100.00;98432.34;4978606;28;20078;-65
2023/01/18 03:06:44;;;;;;;8.45;2.25;;;;;;;10.04;100.00;98450.56;4983629;28;20415;-65
2023/01/18 03:09:17;;;;;;;8.98;2.65;;;;;;;10.26;100.00;98442.63;4979610;28;20247;-66
2023/01/18 03:12:11;;;;;;;9.27;2.70;;;;;;;10.30;100.00;98442.06;4978498;28;20062;-66
2023/01/18 03:14:53;;;;;;;4.47;2.60;;;;;;;10.33;100.00;98431.09;4980223;28;20106;-65
2023/01/18 03:17:26;;;;;;;6.20;2.58;;;;;;;10.32;100.00;98424.16;4983074;28;20165;-65
2023/01/18 03:20:07;;;;;;;4.47;2.37;;;;;;;10.34;100.00;98445.94;4979622;28;20102;-65
2023/01/18 03:25:30;;;;;;;7.63;2.83;;;;;;;10.56;100.00;98436.16;4979444;28;20208;-65
2023/01/18 03:33:43;;;;;;;4.50;2.30;;;;;;;10.83;100.00;98419.41;4979101;28;20057;-66
2023/01/18 03:36:34;;;;;;;8.48;3.05;;;;;;;10.79;100.00;98412.88;4978863;28;20062;-66
2023/01/18 03:39:07;;;;;;;6.20;1.98;;;;;;;10.81;100.00;98421.44;4975662;28;20731;-66
2023/01/18 03:41:39;;;;;;;4.75;2.25;;;;;;;10.73;100.00;98431.38;4979122;28;20133;-66
2023/01/18 03:44:16;;;;;;;9.15;2.55;;;;;;;10.73;99.82;98429.56;4980297;28;20072;-66
2023/01/18 03:46:43;;;;;;;3.53;2.25;;;;;;;10.83;99.82;98429.19;4979013;28;20038;-66
2023/01/18 03:49:10;;;;;;;6.07;2.58;;;;;;;10.77;100.00;98429.97;4977572;28;20093;-65
2023/01/18 03:52:09;;;;;;;7.30;2.58;;;;;;;10.71;100.00;98422.81;4977807;28;20048;-67
2023/01/18 03:54:50;;;;;;;6.13;2.83;;;;;;;10.54;100.00;98436.34;4976982;28;20097;-67
2023/01/18 03:57:23;;;;;;;10.68;3.92;;;;;;;10.57;100.00;98439.63;4977967;28;20038;-68
2023/01/18 03:59:49;;;;;;;7.38;3.42;;;;;;;10.50;100.00;98452.81;4979454;28;20031;-66
2023/01/18 04:02:16;;;;;;;7.07;2.60;;;;;;;10.59;100.00;98434.97;4979020;28;20260;-66
2023/01/18 04:04:41;;;;;;;9.30;2.58;;;;;;;10.65;100.00;98439.47;4978770;28;20038;-65
2023/01/18 04:07:06;;;;;;;6.07;2.40;;;;;;;10.68;100.00;98444.38;4980233;28;20043;-67
2023/01/18 04:09:32;;;;;;;6.30;2.10;;;;;;;10.73;100.00;98445.44;4978792;28;20403;-66
2023/01/18 04:11:57;;;;;;;4.15;2.00;;;;;;;10.78;100.00;98448.31;4978677;28;20084;-68
2023/01/18 04:14:23;;;;;;;6.45;2.35;;;;;;;10.93;99.11;98440.25;4978645;28;20026;-68
2023/01/18 04:16:49;;;;;;;23.55;8.07;;;;;;;10.90;98.91;98440.63;4977114;28;20046;-67
2023/01/18 04:19:14;;;;;;;7.53;3.85;;;;;;;10.90;98.62;98455.72;4978364;28;20042;-67
2023/01/18 04:21:40;;;;;;;6.32;3.25;;;;;;;10.85;98.87;98443.88;4978260;28;20057;-68
2023/01/18 04:24:06;;;;;;;10.27;3.80;;;;;;;10.83;97.71;98445.91;4977584;28;20050;-65
2023/01/18 04:26:33;;;;;;;13.20;3.65;;;;;;;10.74;98.84;98441.78;4977692;28;20046;-65
2023/01/18 04:28:59;;;;;;;7.18;3.08;;;;;;;10.75;99.13;98447.88;4977472;28;20340;-65
2023/01/18 04:31:24;;;;;;;6.93;2.28;;;;;;;10.66;98.94;98457.00;4979891;28;20037;-66
2023/01/18 04:33:50;;;;;;;14.82;4.32;;;;;;;10.57;99.83;98455.50;4979011;28;20030;-65
2023/01/18 04:36:19;;;;;;;5.72;2.25;;;;;;;10.49;100.00;98456.47;4978453;28;20090;-66
2023/01/18 04:38:45;;;;;;;8.88;2.75;;;;;;;10.51;99.45;98465.84;4979506;28;20037;-65
2023/01/18 04:41:10;;;;;;;7.35;2.30;;;;;;;10.52;100.00;98464.03;4978804;28;20035;-67
2023/01/18 04:43:36;;;;;;;6.07;2.35;;;;;;;10.47;100.00;98454.03;4978737;28;20030;-66
2023/01/18 04:46:01;;;;;;;21.15;6.32;;;;;;;10.47;99.75;98454.03;4979742;28;20258;-66
2023/01/18 04:48:27;;;;;;;7.15;2.75;;;;;;;10.45;100.00;98453.41;4980054;28;20045;-65
2023/01/18 04:50:52;;;;;;;4.32;2.28;;;;;;;10.46;99.72;98454.22;4978104;28;20054;-65
2023/01/18 04:53:19;;;;;;;7.10;2.30;;;;;;;10.40;99.93;98455.81;4978095;28;20041;-65
2023/01/18 04:55:45;;;;;;;5.13;2.08;;;;;;;10.46;99.52;98452.38;4977477;28;20030;-65
2023/01/18 04:58:10;;;;;;;5.13;2.08;;;;;;;10.51;98.94;98457.91;4978602;28;20113;-63
2023/01/18 05:00:39;;;;;;;28.08;8.57;;;;;;;10.51;97.93;98462.38;4978066;28;20036;-67
2023/01/18 05:03:08;;;;;;;7.68;3.33;;;;;;;10.40;99.58;98461.09;4979094;28;20046;-65
2023/01/18 05:05:34;;;;;;;6.07;3.00;;;;;;;10.35;99.53;98471.41;4978909;28;20039;-68
2023/01/18 05:08:00;;;;;;;16.45;3.75;;;;;;;10.38;99.59;98460.44;4978987;28;20023;-66
2023/01/18 05:10:26;;;;;;;5.95;3.47;;;;;;;10.38;99.44;98459.63;4980576;28;20046;-65
2023/01/18 05:12:51;;;;;;;6.82;2.58;;;;;;;10.39;99.49;98467.38;4981114;28;20105;-67
2023/01/18 05:15:17;;;;;;;11.65;3.53;;;;;;;10.29;99.41;98476.63;4981192;28;20034;-65
2023/01/18 05:17:42;;;;;;;10.93;3.35;;;;;;;10.31;99.58;98480.72;4982542;28;20854;-65
2023/01/18 05:20:10;;;;;;;9.02;4.10;;;;;;;9.84;99.29;98482.09;4981247;28;20086;-65
2023/01/18 05:22:36;;;;;;;14.35;5.65;;;;;;;9.92;100.00;98487.28;4981224;28;20065;-64
2023/01/18 05:25:05;;;;;;;10.50;5.45;;;;;;;10.06;99.81;98493.50;4982444;28;20517;-63
2023/01/18 05:27:30;;;;;;;19.75;6.97;;;;;;;10.28;99.18;98480.28;4980666;28;20336;-65
2023/01/18 05:29:56;;;;;;;12.45;5.30;;;;;;;10.32;98.05;98492.13;4981809;28;20047;-67
2023/01/18 05:32:21;;;;;;;12.13;5.30;;;;;;;10.37;96.97;98484.44;4980344;28;20288;-67
2023/01/18 05:34:47;;;;;;;22.98;11.30;;;;;;;10.33;97.46;98499.06;4982354;28;20037;-66
2023/01/18 05:37:12;;;;;;;13.60;6.40;;;;;;;10.36;97.60;98491.56;4981322;28;20040;-67
2023/01/18 05:39:38;;;;;;;16.45;7.57;;;;;;;10.35;96.95;98481.16;4979923;28;20034;-68
2023/01/18 05:42:04;;;;;;;28.33;13.57;;;;;;;10.15;97.44;98480.97;4979498;28;20349;-66
2023/01/18 05:44:29;;;;;;;27.83;13.55;;;;;;;9.97;99.44;98484.06;4980323;28;20057;-67
2023/01/18 05:46:55;;;;;;;20.67;10.93;;;;;;;9.97;99.77;98491.16;4981851;28;20039;-67
2023/01/18 05:49:21;;;;;;;16.00;9.15;;;;;;;10.19;98.89;98490.97;4981707;28;20394;-67
2023/01/18 05:51:46;;;;;;;11.98;6.50;;;;;;;10.26;97.82;98498.19;4981684;28;20043;-65
2023/01/18 05:54:12;;;;;;;12.32;5.72;;;;;;;10.14;98.65;98501.31;4998819;28;20028;-65
2023/01/18 05:56:37;;;;;;;10.25;5.10;;;;;;;10.19;97.59;98496.28;5001121;28;20042;-66
2023/01/18 05:59:03;;;;;;;14.05;5.70;;;;;;;10.31;97.58;98490.50;5000307;28;20046;-67
2023/01/18 06:01:28;;;;;;;98.70;36.70;;;;;;;10.40;97.07;98500.78;5000753;28;20034;-67
2023/01/18 06:03:54;;;;;;;23.67;9.13;;;;;;;10.34;96.61;98506.81;5000568;28;20026;-67
2023/01/18 06:06:19;;;;;;;16.20;6.35;;;;;;;9.45;99.14;98498.34;4999739;28;20042;-67
2023/01/18 06:08:45;;;;;;;8.23;4.72;;;;;;;9.78;98.80;98504.00;5000538;28;20041;-65
2023/01/18 06:11:10;;;;;;;12.70;5.05;;;;;;;9.87;97.76;98491.47;5000499;28;20242;-68
2023/01/18 06:13:36;;;;;;;12.80;5.10;;;;;;;10.00;97.06;98504.84;5000177;28;20053;-68
2023/01/18 06:16:02;;;;;;;17.27;6.57;;;;;;;10.06;96.23;98514.66;5000272;28;20030;-67
2023/01/18 06:18:31;;;;;;;13.05;7.40;;;;;;;10.17;96.35;98522.09;5000253;28;20034;-67
2023/01/18 06:20:58;;;;;;;8.50;4.10;;;;;;;10.27;95.85;98503.28;4999723;28;20034;-67
2023/01/18 06:23:24;;;;;;;10.23;4.97;;;;;;;10.23;95.34;98523.19;5000406;28;20042;-66
2023/01/18 06:25:50;;;;;;;9.95;4.78;;;;;;;10.36;95.70;98514.56;4999731;28;20042;-67
2023/01/18 06:28:16;;;;;;;10.65;4.60;;;;;;;10.39;94.45;98540.63;4999699;28;20313;-67
2023/01/18 06:30:41;;;;;;;7.95;4.60;;;;;;;10.44;94.89;98533.78;4999953;28;20289;-67
2023/01/18 06:33:08;;;;;;;22.70;9.23;;;;;;;10.35;96.43;98534.91;4999803;28;20076;-67
2023/01/18 06:35:35;;;;;;;17.70;8.90;;;;;;;10.30;97.51;98536.47;4999648;28;20113;-67
2023/01/18 06:38:03;;;;;;;15.15;9.15;;;;;;;10.42;97.17;98529.69;4999459;28;20053;-68
2023/01/18 06:40:28;;;;;;;7.55;4.82;;;;;;;10.47;95.59;98536.06;5000137;28;20038;-67
2023/01/18 06:42:54;;;;;;;19.25;8.05;;;;;;;10.78;95.51;98561.34;4999779;28;20042;-67
2023/01/18 06:45:21;;;;;;;7.20;4.45;;;;;;;10.86;94.85;98543.50;5000247;28;20397;-67
2023/01/18 06:47:49;;;;;;;10.38;5.85;;;;;;;10.87;96.35;98533.72;5000242;28;20117;-67
2023/01/18 06:50:15;;;;;;;10.70;5.55;;;;;;;10.97;97.50;98531.53;4998713;28;20247;-67
2023/01/18 06:52:42;;;;;;;8.48;4.57;;;;;;;11.31;94.62;98533.38;4998765;28;20030;-68
2023/01/18 06:55:08;;;;;;;10.35;5.80;;;;;;;11.63;95.15;98545.16;4999002;28;20042;-66
2023/01/18 06:57:33;;;;;;;15.95;7.25;;;;;;;11.86;94.30;98552.84;4998574;28;20109;-65
2023/01/18 07:00:00;;;;;;;22.05;13.13;;;;;;;12.04;94.64;98557.56;4998560;28;20034;-65
2023/01/18 07:02:27;;;;;;;20.60;10.95;;;;;;;12.25;92.88;98554.75;4998945;28;20059;-65
2023/01/18 07:04:53;;;;;;;22.88;11.88;;;;;;;12.45;90.37;98555.59;4998489;28;20026;-65
2023/01/18 07:07:18;;;;;;;21.40;12.07;;;;;;;12.52;90.66;98555.66;4998452;28;20030;-65
2023/01/18 07:09:44;;;;;;;13.95;8.63;;;;;;;12.67;90.01;98547.47;4998422;28;20100;-67
2023/01/18 07:12:09;;;;;;;13.65;6.97;;;;;;;12.77;89.94;98548.69;4998563;28;20327;-65
2023/01/18 07:14:35;;;;;;;16.85;8.95;;;;;;;12.92;90.13;98551.16;4997818;28;20201;-66
2023/01/18 07:17:00;;;;;;;12.63;7.57;;;;;;;13.14;90.05;98559.69;4997226;28;20026;-66
2023/01/18 07:19:26;;;;;;;21.90;9.23;;;;;;;13.30;88.47;98558.47;4994130;28;20113;-65
2023/01/18 07:21:54;;;;;;;25.02;12.27;;;;;;;13.40;88.33;98557.00;4994977;28;20299;-65
2023/01/18 07:24:20;;;;;;;17.05;9.45;;;;;;;13.52;88.71;98578.44;4995250;28;20037;-65
2023/01/18 07:26:45;;;;;;;16.65;9.52;;;;;;;13.76;88.83;98574.31;4993949;28;20046;-64
2023/01/18 07:29:10;;;;;;;21.30;8.77;;;;;;;13.94;88.64;98578.94;4995736;28;20042;-65
2023/01/18 07:31:37;;;;;;;15.80;9.23;;;;;;;14.16;88.43;98576.78;4993719;28;20050;-65
2023/01/18 07:34:03;;;;;;;16.83;8.75;;;;;;;14.35;87.60;98575.84;4993666;28;20061;-66
2023/01/18 07:36:29;;;;;;;18.58;8.45;;;;;;;14.53;86.53;98575.97;4995405;28;20808;-66
2023/01/18 07:38:54;;;;;;;11.63;6.18;;;;;;;14.72;83.38;98574.22;4992183;28;20041;-65
2023/01/18 07:41:21;;;;;;;8.85;5.10;;;;;;;14.82;82.81;98577.19;4992350;28;20049;-64
2023/01/18 07:43:47;;;;;;;11.30;5.18;;;;;;;14.93;83.06;98573.81;4992656;28;20068;-65
2023/01/18 07:46:17;;;;;;;8.95;4.45;;;;;;;15.01;83.74;98589.53;4994708;28;20066;-65
2023/01/18 07:48:43;;;;;;;10.65;5.10;;;;;;;15.17;81.72;98585.50;4993731;28;20320;-67
2023/01/18 07:51:09;;;;;;;7.03;3.70;;;;;;;15.26;78.11;98584.19;4994150;28;20034;-65
2023/01/18 07:53:36;;;;;;;9.13;4.20;;;;;;;15.41;78.20;98591.84;4994694;28;20049;-65
2023/01/18 07:56:05;;;;;;;7.00;3.10;;;;;;;15.50;77.14;98601.16;4992958;28;20034;-66
2023/01/18 07:58:31;;;;;;;11.23;4.07;;;;;;;15.49;75.84;98614.72;4993865;28;20046;-66
2023/01/18 08:01:11;;;;;;;9.25;4.32;;;;;;;15.44;76.09;98607.41;4993611;28;20179;-64
2023/01/18 08:03:36;;;;;;;7.38;4.05;;;;;;;15.40;77.48;98614.22;4992546;28;20030;-65
2023/01/18 08:06:05;;;;;;;7.80;3.80;;;;;;;15.40;77.90;98619.53;4994209;28;20084;-65
2023/01/18 08:08:30;;;;;;;11.85;5.00;;;;;;;15.33;78.84;98618.78;4993399;28;20068;-65
2023/01/18 08:10:57;;;;;;;12.38;4.78;;;;;;;15.23;80.58;98629.13;4994136;28;20042;-65
2023/01/18 08:13:25;;;;;;;12.27;4.57;;;;;;;15.02;82.50;98627.69;4992077;28;20089;-65
2023/01/18 08:15:50;;;;;;;12.23;5.90;;;;;;;14.98;83.80;98627.31;4993621;28;20041;-65
2023/01/18 08:18:16;;;;;;;10.75;3.33;;;;;;;14.86;83.36;98618.38;4994790;28;20030;-66
2023/01/18 08:20:46;;;;;;;7.82;3.50;;;;;;;14.86;84.42;98634.38;4992995;28;20332;-66
2023/01/18 08:23:11;;;;;;;6.03;2.92;;;;;;;14.89;84.51;98630.44;4994466;28;20505;-65
2023/01/18 08:25:37;;;;;;;10.93;3.40;;;;;;;15.05;83.90;98632.56;4992147;28;20096;-65
2023/01/18 08:28:03;;;;;;;5.38;2.53;;;;;;;15.25;83.21;98627.88;4993110;28;20038;-65
2023/01/18 08:30:32;;;;;;;8.85;2.90;;;;;;;15.37;81.23;98630.66;4993362;28;20394;-65
2023/01/18 08:32:59;;;;;;;7.55;3.05;;;;;;;15.41;80.67;98639.84;4993457;28;20038;-65
2023/01/18 08:35:27;;;;;;;6.22;2.58;;;;;;;15.56;79.71;98631.50;4994821;28;20038;-65
2023/01/18 08:37:53;;;;;;;6.47;2.88;;;;;;;15.62;79.10;98622.66;4991356;28;20406;-65
2023/01/18 08:40:19;;;;;;;5.93;2.65;;;;;;;15.70;79.05;98632.22;4994308;28;20046;-65
2023/01/18 08:42:45;;;;;;;9.35;4.10;;;;;;;15.67;82.98;98641.50;4989842;28;20283;-66
2023/01/18 08:45:12;;;;;;;31.70;11.13;;;;;;;15.56;83.97;98634.97;4995764;28;20042;-66
2023/01/18 08:47:37;;;;;;;25.23;7.63;;;;;;;15.54;84.39;98626.38;4996873;28;20038;-66
2023/01/18 08:50:03;;;;;;;35.85;13.18;;;;;;;15.50;84.79;98632.38;4997035;28;20053;-66
2023/01/18 08:52:28;;;;;;;29.33;15.38;;;;;;;15.52;84.58;98635.63;4997407;28;20065;-66
2023/01/18 08:54:54;;;;;;;24.88;12.50;;;;;;;15.54;84.31;98646.91;4996973;28;20038;-66
2023/01/18 08:57:19;;;;;;;11.02;4.43;;;;;;;15.52;83.25;98655.13;4998103;28;20101;-65
2023/01/18 08:59:45;;;;;;;7.97;3.47;;;;;;;15.66;83.26;98647.06;4995370;28;20068;-64
2023/01/18 09:02:13;;;;;;;5.68;2.50;;;;;;;15.64;82.10;98649.94;4997065;28;20397;-65
2023/01/18 09:04:38;;;;;;;15.57;7.53;;;;;;;15.73;81.28;98642.47;4997208;28;20034;-65
2023/01/18 09:07:03;;;;;;;9.95;3.25;;;;;;;15.74;80.14;98639.56;4996884;28;20259;-66
2023/01/18 09:09:29;;;;;;;4.80;2.38;;;;;;;15.71;79.52;98641.88;4997296;28;20787;-66
2023/01/18 09:11:57;;;;;;;4.93;2.78;;;;;;;15.83;81.40;98640.91;4996964;28;20027;-65
2023/01/18 09:14:22;;;;;;;7.07;2.55;;;;;;;15.89;80.60;98653.34;4997265;28;20034;-65
2023/01/18 09:16:48;;;;;;;9.18;3.30;;;;;;;15.93;81.65;98651.88;4996475;28;20362;-65
2023/01/18 09:19:14;;;;;;;6.20;2.97;;;;;;;15.80;77.67;98643.19;4997442;28;20378;-65
2023/01/18 09:21:39;;;;;;;6.28;2.75;;;;;;;15.90;77.70;98641.63;4996075;28;20034;-65
2023/01/18 09:24:07;;;;;;;6.95;2.63;;;;;;;15.86;74.09;98643.13;4996025;28;20042;-65
2023/01/18 09:26:32;;;;;;;3.75;1.90;;;;;;;15.98;72.22;98653.06;4995971;28;20193;-65
2023/01/18 09:28:58;;;;;;;5.68;2.20;;;;;;;16.04;71.96;98652.16;4995471;28;20054;-65
2023/01/18 09:31:25;;;;;;;5.95;2.10;;;;;;;16.07;71.50;98649.06;4995216;28;20045;-66
2023/01/18 09:33:51;;;;;;;5.93;1.92;;;;;;;16.08;70.47;98643.47;4995667;28;20042;-66
2023/01/18 09:36:17;;;;;;;4.95;1.90;;;;;;;16.15;69.81;98633.53;4994876;28;20069;-66
2023/01/18 09:38:44;;;;;;;4.78;2.10;;;;;;;16.18;70.65;98629.59;4996104;28;20050;-65
2023/01/18 09:41:36;;;;;;;8.02;1.90;;;;;;;16.16;71.23;98631.69;4996909;28;20034;-65
2023/01/18 09:44:07;;;;;;;6.40;2.10;;;;;;;16.12;70.81;98622.50;4996954;28;20057;-65
2023/01/18 09:46:36;;;;;;;3.38;1.65;;;;;;;16.21;70.71;98629.16;4995708;28;20034;-65
2023/01/18 09:49:05;;;;;;;4.25;1.58;;;;;;;16.25;70.02;98622.31;4996246;28;20038;-65
2023/01/18 09:51:31;;;;;;;3.65;1.73;;;;;;;16.28;70.26;98630.69;4996562;28;20058;-65
2023/01/18 09:54:06;;;;;;;5.57;1.45;;;;;;;16.33;68.73;98632.69;4995993;28;20129;-65
2023/01/18 09:56:51;;;;;;;4.97;1.40;;;;;;;16.54;67.03;98632.19;4994179;28;20109;-66
2023/01/18 09:59:29;;;;;;;;;;;;;;;16.60;66.48;98627.78;4994423;28;20070;-65
2023/01/18 10:01:54;;;;;;;6.93;1.50;;;;;;;16.75;66.88;98643.47;4996871;28;19930;-65
2023/01/18 10:04:27;;;;;;;9.52;1.55;;;;;;;16.83;63.98;98638.59;4994644;28;20619;-65
2023/01/18 10:06:59;;;;;;;3.58;1.10;;;;;;;16.93;64.45;98648.75;4995065;28;20359;-65
2023/01/18 10:09:38;;;;;;;3.78;1.50;;;;;;;16.96;66.17;98645.59;4996050;28;20110;-65
2023/01/18 10:12:34;;;;;;;6.05;2.08;;;;;;;17.01;67.38;98658.28;4996234;28;20030;-65
2023/01/18 10:15:09;;;;;;;6.10;2.78;;;;;;;17.02;70.54;98660.72;4995297;28;20046;-65
2023/01/18 10:17:40;;;;;;;7.10;2.55;;;;;;;16.89;71.77;98643.03;4996613;28;20046;-65
2023/01/18 10:20:36;;;;;;;9.60;3.90;;;;;;;16.74;72.07;98647.19;4994524;28;20034;-65
2023/01/18 10:23:14;;;;;;;6.75;2.10;;;;;;;16.69;68.78;98650.53;4994729;28;20038;-65
2023/01/18 10:26:01;;;;;;;10.38;3.88;;;;;;;16.71;69.24;98656.47;4994763;28;20141;-65
2023/01/18 10:28:55;;;;;;;12.38;5.93;;;;;;;16.71;70.50;98640.44;4994940;28;20026;-65
2023/01/18 10:31:45;;;;;;;12.13;4.43;;;;;;;16.75;68.22;98643.47;4996549;28;20097;-65
2023/01/18 10:34:22;;;;;;;17.13;8.50;;;;;;;16.74;68.81;98641.84;4993951;28;20038;-65
2023/01/18 10:36:53;;;;;;;14.20;5.35;;;;;;;16.64;68.86;98634.31;4997851;28;20026;-66
2023/01/18 10:39:36;;;;;;;8.85;3.25;;;;;;;16.69;68.58;98633.69;4998575;28;20042;-66
2023/01/18 10:42:05;;;;;;;10.57;2.13;;;;;;;16.87;54.82;98607.69;4998887;28;20351;-65
2023/01/18 10:44:30;;;;;;;5.45;1.85;;;;;;;17.23;56.21;98620.06;4998923;28;20038;-65
2023/01/18 10:47:00;;;;;;;5.47;2.22;;;;;;;17.30;57.48;98617.25;4998759;28;20044;-65
2023/01/18 10:49:33;;;;;;;6.22;1.05;;;;;;;17.45;57.03;98622.13;4997965;28;20105;-65
2023/01/18 10:52:33;;;;;;;4.95;1.38;;;;;;;17.54;56.72;98620.75;4998699;28;20316;-66
2023/01/18 10:55:01;;;;;;;3.40;1.58;;;;;;;17.53;56.24;98621.78;4998632;28;20344;-65
2023/01/18 10:57:34;;;;;;;4.65;2.65;;;;;;;17.52;54.23;98626.31;4998109;28;20109;-65
2023/01/18 11:00:00;;;;;;;5.78;1.05;;;;;;;17.59;52.96;98633.41;4998939;28;20044;-65
2023/01/18 11:02:36;;;;;;;5.95;1.73;;;;;;;17.67;52.86;98631.22;4998224;28;20328;-66
2023/01/18 11:05:20;;;;;;;9.45;1.20;;;;;;;17.68;54.09;98637.41;4997637;28;20182;-66
2023/01/18 11:07:46;;;;;;;9.18;2.28;;;;;;;17.67;54.70;98643.81;4997383;28;20030;-66
2023/01/18 11:10:26;;;;;;;4.13;1.20;;;;;;;17.68;54.81;98640.88;4997928;28;20058;-66
2023/01/18 11:12:53;;;;;;;5.07;1.63;;;;;;;17.66;55.95;98637.63;4997626;28;20068;-66
2023/01/18 11:15:18;;;;;;;5.90;1.27;;;;;;;17.59;55.39;98636.09;4998255;28;20038;-66
2023/01/18 11:17:53;;;;;;;3.15;1.27;;;;;;;17.59;57.09;98634.22;4996835;28;20232;-65
2023/01/18 11:20:28;;;;;;;8.82;2.00;;;;;;;17.55;56.11;98630.41;4998302;28;20042;-65
2023/01/18 11:23:13;;;;;;;4.25;1.45;;;;;;;17.53;55.79;98629.81;4997886;28;20050;-65
2023/01/18 11:26:17;;;;;;;6.68;1.48;;;;;;;17.44;57.88;98605.28;4997571;28;20030;-66
2023/01/18 11:28:43;;;;;;;4.45;1.30;;;;;;;17.54;58.07;98620.75;4957093;29;20039;-66
2023/01/18 11:31:14;;;;;;;4.88;1.73;;;;;;;17.53;56.62;98609.22;4989577;28;20239;-65
2023/01/18 11:34:01;;;;;;;5.90;1.95;;;;;;;17.60;58.28;98614.44;4997568;28;20037;-64
2023/01/18 11:36:39;;;;;;;8.23;1.85;;;;;;;17.64;57.80;98615.59;4997686;28;20080;-65
2023/01/18 11:39:20;;;;;;;6.82;1.48;;;;;;;17.64;58.47;98620.16;4998000;28;20332;-65
2023/01/18 11:41:47;;;;;;;8.88;1.77;;;;;;;17.63;58.51;98616.66;4997044;28;20109;-65
2023/01/18 11:44:27;;;;;;;14.98;6.22;;;;;;;17.63;56.93;98607.81;4997696;28;20081;-65
2023/01/18 11:46:56;;;;;;;6.78;3.13;;;;;;;17.70;57.13;98621.94;4998080;28;20367;-65
2023/01/18 11:49:43;;;;;;;9.02;1.92;;;;;;;17.68;56.58;98622.16;4998003;28;20261;-66
2023/01/18 11:52:26;;;;;;;6.50;2.10;;;;;;;17.68;57.24;98619.47;4997813;28;20281;-66
2023/01/18 11:54:57;;;;;;;7.50;2.15;;;;;;;17.69;56.98;98617.63;4997217;28;20395;-66
2023/01/18 11:57:23;;;;;;;12.52;2.78;;;;;;;17.69;55.88;98623.00;4997328;28;20049;-65
2023/01/18 11:59:48;;;;;;;7.93;2.50;;;;;;;17.73;56.30;98618.78;4997566;28;20134;-65
2023/01/18 12:02:54;;;;;;;8.85;1.70;;;;;;;17.74;56.90;98625.78;4997708;28;20049;-65
2023/01/18 12:05:32;;;;;;;10.27;2.00;;;;;;;17.75;56.90;98619.38;4997518;28;20042;-65
2023/01/18 12:08:37;;;;;;;11.40;3.20;;;;;;;17.74;58.17;98615.88;4997298;28;20146;-65
2023/01/18 12:11:29;;;;;;;11.77;2.70;;;;;;;17.75;58.45;98609.47;4993689;28;20046;-64
2023/01/18 12:14:17;;;;;;;8.18;2.03;;;;;;;17.80;56.66;98614.13;4992475;28;20046;-66